createdAt,value
2019-04-20T00:02:37.928Z,7.90
2019-04-20T00:08:22.590Z,11.87
2019-04-20T00:13:57.722Z,7.63
2019-04-20T00:19:26.244Z,14.87
2019-04-20T00:24:59.374Z,10.03
2019-04-20T00:30:46.789Z,14.67
2019-04-20T00:35:57.300Z,10.67
2019-04-20T00:41:27.671Z,13.30
2019-04-20T00:47:08.609Z,11.10
2019-04-20T00:52:44.490Z,14.77
2019-04-20T00:58:10.343Z,13.20
2019-04-20T01:03:48.624Z,11.07
2019-04-20T01:09:05.463Z,10.73
2019-04-20T01:14:43.667Z,10.77
2019-04-20T01:20:08.821Z,10.60
2019-04-20T01:25:42.269Z,8.60
2019-04-20T01:31:19.855Z,11.30
2019-04-20T01:36:55.698Z,9.90
2019-04-20T01:42:13.057Z,9.53
2019-04-20T01:47:47.806Z,8.17
2019-04-20T01:53:37.745Z,10.27
2019-04-20T01:59:04.678Z,10.17
2019-04-20T02:04:43.154Z,7.47
2019-04-20T02:10:12.185Z,7.63
2019-04-20T02:15:47.928Z,10.40
2019-04-20T02:21:28.631Z,6.60
2019-04-20T02:26:43.496Z,7.87
2019-04-20T02:32:45.779Z,8.40
2019-04-20T02:38:22.547Z,10.27
2019-04-20T02:44:12.197Z,13.67
2019-04-20T02:49:33.707Z,7.93
2019-04-20T02:54:57.492Z,10.40
2019-04-20T03:00:17.855Z,8.90
2019-04-20T03:05:36.840Z,9.57
2019-04-20T03:11:26.231Z,9.63
2019-04-20T03:16:43.684Z,10.13
2019-04-20T03:22:24.584Z,13.20
2019-04-20T03:27:52.904Z,7.70
2019-04-20T03:33:51.392Z,9.47
2019-04-20T03:38:53.850Z,8.80
2019-04-20T03:44:12.694Z,6.93
2019-04-20T03:49:59.507Z,12.70
2019-04-20T03:55:35.640Z,9.27
2019-04-20T04:01:33.257Z,6.93
2019-04-20T04:06:44.406Z,8.17
2019-04-20T04:13:01.111Z,7.83
2019-04-20T04:18:37.244Z,9.30
2019-04-20T04:24:13.042Z,8.80
2019-04-20T04:29:55.939Z,9.27
2019-04-20T04:35:20.148Z,9.23
2019-04-20T04:41:09.887Z,8.50
2019-04-20T04:46:10.248Z,6.20
2019-04-20T04:51:47.472Z,9.57
2019-04-20T04:57:11.593Z,12.70
2019-04-20T05:02:48.805Z,9.67
2019-04-20T05:08:22.183Z,7.13
2019-04-20T05:13:50.566Z,7.17
2019-04-20T05:19:38.196Z,8.90
2019-04-20T05:25:12.893Z,10.80
2019-04-20T05:30:20.228Z,11.10
2019-04-20T05:36:14.689Z,12.37
2019-04-20T05:41:38.455Z,9.40
2019-04-20T05:47:11.372Z,7.47
2019-04-20T05:53:03.175Z,8.10
2019-04-20T05:58:16.516Z,9.60
2019-04-20T06:03:42.344Z,7.20
2019-04-20T06:14:47.118Z,7.67
2019-04-20T06:20:27.229Z,8.97
2019-04-20T06:26:12.725Z,7.97
2019-04-20T06:31:32.483Z,6.50
2019-04-20T06:36:57.380Z,6.83
2019-04-20T06:42:33.928Z,9.90
2019-04-20T06:48:08.577Z,9.60
2019-04-20T06:53:45.557Z,7.93
2019-04-20T06:59:11.962Z,9.93
2019-04-20T07:15:41.584Z,5.50
2019-04-20T07:21:41.685Z,6.60
2019-04-20T07:26:49.172Z,6.13
2019-04-20T07:32:17.740Z,7.10
2019-04-20T07:43:28.403Z,13.40
2019-04-20T07:49:02.678Z,6.07
2019-04-20T07:54:41.565Z,7.43
2019-04-20T07:59:59.869Z,5.77
2019-04-20T08:05:33.340Z,5.40
2019-04-20T08:11:12.357Z,5.17
2019-04-20T08:22:19.844Z,9.07
2019-04-20T08:27:33.891Z,6.03
2019-04-20T08:33:21.058Z,7.17
2019-04-20T08:39:13.903Z,10.13
2019-04-20T08:44:46.957Z,4.60
2019-04-20T08:50:21.213Z,5.70
2019-04-20T08:55:43.837Z,8.20
2019-04-20T09:01:01.724Z,10.50
2019-04-20T09:06:39.992Z,5.37
2019-04-20T09:12:17.978Z,5.60
2019-04-20T09:17:47.252Z,5.90
2019-04-20T09:23:34.117Z,6.60
2019-04-20T09:29:13.733Z,5.33
2019-04-20T09:34:46.577Z,4.73
2019-04-20T09:40:20.217Z,6.23
2019-04-20T09:45:47.384Z,5.40
2019-04-20T09:51:30.742Z,4.70
2019-04-20T09:57:27.602Z,5.27
2019-04-20T10:02:39.072Z,6.23
2019-04-20T10:08:09.889Z,8.10
2019-04-20T10:13:38.925Z,10.97
2019-04-20T10:19:11.679Z,4.40
2019-04-20T10:24:39.206Z,3.63
2019-04-20T10:30:08.777Z,6.07
2019-04-20T10:35:39.455Z,3.13
2019-04-20T10:41:16.614Z,4.50
2019-04-20T10:46:40.724Z,5.43
2019-04-20T10:52:10.120Z,2.57
2019-04-20T10:57:39.725Z,4.60
2019-04-20T11:03:10.589Z,5.00
2019-04-20T11:08:40.495Z,8.33
2019-04-20T11:14:17.976Z,5.53
2019-04-20T11:19:45.314Z,9.43
2019-04-20T11:25:14.447Z,5.70
2019-04-20T11:30:50.194Z,5.83
2019-04-20T11:36:19.599Z,8.60
2019-04-20T11:41:49.756Z,8.77
2019-04-20T11:47:29.592Z,7.87
2019-04-20T11:53:08.949Z,6.90
2019-04-20T11:58:38.842Z,8.87
2019-04-20T12:04:24.911Z,9.23
2019-04-20T12:09:41.825Z,5.93
2019-04-20T12:15:12.705Z,4.97
2019-04-20T12:20:44.952Z,8.93
2019-04-20T12:26:14.817Z,6.37
2019-04-20T12:31:52.239Z,6.80
2019-04-20T12:37:16.390Z,6.23
2019-04-20T12:42:46.620Z,6.90
2019-04-20T12:48:16.090Z,9.33
2019-04-20T12:53:46.646Z,5.60
2019-04-20T12:59:18.573Z,5.30
2019-04-20T13:04:49.067Z,6.43
2019-04-20T13:10:23.415Z,7.93
2019-04-20T13:16:08.223Z,6.30
2019-04-20T13:21:38.927Z,6.27
2019-04-20T13:27:11.131Z,8.87
2019-04-20T13:32:41.558Z,5.13
2019-04-20T13:38:12.014Z,10.17
2019-04-20T13:43:41.887Z,7.60
2019-04-20T13:49:11.255Z,8.47
2019-04-20T13:54:40.482Z,8.43
2019-04-20T14:00:22.444Z,8.33
2019-04-20T14:05:58.390Z,8.00
2019-04-20T14:11:29.418Z,13.57
2019-04-20T14:17:01.166Z,5.10
2019-04-20T14:22:31.325Z,5.00
2019-04-20T14:28:00.812Z,6.27
2019-04-20T14:33:30.752Z,3.93
2019-04-20T14:39:00.494Z,4.70
2019-04-20T14:44:29.979Z,8.23
2019-04-20T14:50:01.667Z,4.33
2019-04-20T14:55:31.392Z,5.47
2019-04-20T15:01:02.654Z,4.73
2019-04-20T15:06:35.000Z,5.30
2019-04-20T15:12:04.461Z,4.97
2019-04-20T15:17:45.812Z,6.03
2019-04-20T15:23:17.481Z,7.40
2019-04-20T15:28:50.794Z,6.37
2019-04-20T15:34:21.205Z,7.40
2019-04-20T15:39:54.930Z,4.90
2019-04-20T15:45:25.335Z,4.23
2019-04-20T15:50:56.126Z,5.47
2019-04-20T15:56:29.128Z,7.10
2019-04-20T16:02:03.116Z,4.10
2019-04-20T16:07:42.266Z,7.63
2019-04-20T16:13:13.472Z,4.53
2019-04-20T16:18:35.020Z,4.17
2019-04-20T16:24:10.840Z,9.90
2019-04-20T16:29:39.722Z,10.23
2019-04-20T16:35:10.889Z,7.07
2019-04-20T16:40:42.096Z,4.47
2019-04-20T16:46:11.540Z,5.13
2019-04-20T16:51:41.153Z,6.33
2019-04-20T16:57:12.505Z,6.63
2019-04-20T17:02:42.380Z,7.80
2019-04-20T17:08:13.082Z,4.53
2019-04-20T17:13:49.569Z,6.50
2019-04-20T17:19:15.573Z,4.97
2019-04-20T17:24:45.399Z,5.50
2019-04-20T17:30:27.036Z,4.17
2019-04-20T17:36:04.539Z,5.20
2019-04-20T17:41:53.001Z,4.60
2019-04-20T17:47:18.485Z,6.67
2019-04-20T17:52:52.349Z,8.83
2019-04-20T17:58:01.698Z,12.73
2019-04-20T18:04:08.058Z,6.70
2019-04-20T18:09:25.451Z,6.70
2019-04-20T18:14:50.100Z,4.20
2019-04-20T18:20:09.861Z,5.80
2019-04-20T18:26:04.775Z,7.63
2019-04-20T18:31:13.358Z,6.90
2019-04-20T18:36:46.199Z,6.57
2019-04-20T18:42:23.955Z,8.03
2019-04-20T18:48:06.584Z,11.60
2019-04-20T18:53:28.666Z,5.93
2019-04-20T18:58:53.528Z,8.70
2019-04-20T19:04:23.709Z,14.43
2019-04-20T19:10:01.908Z,7.40
2019-04-20T19:15:47.861Z,11.97
2019-04-20T19:21:06.860Z,8.70
2019-04-20T19:26:38.476Z,10.53
2019-04-20T19:32:23.908Z,11.43
2019-04-20T19:37:51.618Z,12.47
2019-04-20T19:43:22.587Z,12.33
2019-04-20T19:48:52.672Z,19.13
2019-04-20T19:54:35.515Z,10.83
2019-04-20T19:59:50.824Z,23.03
2019-04-20T20:05:19.203Z,19.83
2019-04-20T20:10:48.627Z,17.60
2019-04-20T20:16:27.298Z,13.37
2019-04-20T20:22:02.626Z,13.90
2019-04-20T20:27:31.366Z,18.47
2019-04-20T20:33:13.936Z,14.23
2019-04-20T20:38:35.222Z,19.90
2019-04-20T20:44:03.672Z,20.13
2019-04-20T20:49:47.066Z,20.13
2019-04-20T20:55:06.735Z,15.33
2019-04-20T21:00:42.887Z,17.33
2019-04-20T21:06:03.504Z,17.20
2019-04-20T21:11:36.089Z,17.17
2019-04-20T21:17:12.358Z,16.00
2019-04-20T21:22:54.506Z,16.83
2019-04-20T21:28:06.983Z,16.00
2019-04-20T21:33:39.695Z,24.07
2019-04-20T21:39:16.516Z,21.70
2019-04-20T21:44:42.961Z,17.80
2019-04-20T21:50:26.782Z,19.30
2019-04-20T21:55:43.856Z,26.50
2019-04-20T22:01:22.250Z,18.37
2019-04-20T22:06:46.541Z,24.10
2019-04-20T22:12:16.094Z,14.67
2019-04-20T22:17:46.486Z,18.20
2019-04-20T22:23:32.934Z,14.80
2019-04-20T22:28:47.973Z,12.77
2019-04-20T22:34:20.944Z,14.83
2019-04-20T22:39:53.933Z,14.30
2019-04-20T22:45:23.297Z,10.43
2019-04-20T22:51:17.830Z,11.87
2019-04-20T22:56:39.707Z,13.30
2019-04-20T23:01:59.865Z,10.20
2019-04-20T23:07:26.527Z,11.40
2019-04-20T23:12:59.584Z,10.37
2019-04-20T23:18:28.738Z,13.13
2019-04-20T23:24:00.427Z,11.73
2019-04-20T23:29:33.976Z,11.33
2019-04-20T23:35:04.930Z,18.90
2019-04-20T23:40:32.058Z,9.20
2019-04-20T23:46:24.045Z,10.07
2019-04-20T23:52:09.741Z,11.80
2019-04-20T23:57:21.849Z,10.00
